Time;durP1;ratioP1;P1;durP2;ratioP2;P2;SDS_P1;SDS_P2;PMS_P1;PMS_P2;Temp;Humidity;BMP_temperature;BMP_pressure;BME280_temperature;BME280_humidity;BME280_pressure;Samples;Min_cycle;Max_cycle;Signal;HPM_P1;HPM_P2
2022/11/08 00:03:57;;;;;;;17.38;4.55;;;;;;;-146.42;100.00;67171.59;6182970;23;20024;-86
2022/11/08 00:14:54;;;;;;;18.02;4.28;;;;;;;-146.42;100.00;67171.59;6218682;23;20020;-86
2022/11/08 00:17:25;;;;;;;13.02;3.45;;;;;;;-146.42;100.00;67171.59;6181087;23;20024;-87
2022/11/08 00:19:55;;;;;;;21.23;3.20;;;;;;;-146.42;100.00;67171.59;6183037;23;20020;-87
2022/11/08 00:22:25;;;;;;;13.13;3.20;;;;;;;-146.42;100.00;67171.59;6218299;23;20019;-87
2022/11/08 00:24:52;;;;;;;23.48;3.38;;;;;;;-146.42;100.00;67171.59;6183875;23;20537;-86
2022/11/08 00:27:26;;;;;;;17.63;3.55;;;;;;;-146.42;100.00;67171.59;6218128;23;20023;-87
2022/11/08 00:29:57;;;;;;;13.45;3.22;;;;;;;-146.42;100.00;67171.59;6183554;23;20099;-88
2022/11/08 00:32:32;;;;;;;17.75;3.80;;;;;;;-146.42;100.00;67171.59;6215704;23;20012;-87
2022/11/08 00:35:01;;;;;;;15.80;4.15;;;;;;;-146.42;100.00;67171.59;6183701;23;20020;-89
2022/11/08 00:37:32;;;;;;;17.33;3.17;;;;;;;-146.42;100.00;67171.59;6182069;23;20390;-88
2022/11/08 00:40:11;;;;;;;15.95;3.75;;;;;;;-146.42;100.00;67171.59;6220157;23;20092;-87
2022/11/08 00:42:53;;;;;;;19.88;4.65;;;;;;;-146.42;100.00;67171.59;6218783;23;20044;-87
2022/11/08 00:45:25;;;;;;;19.52;3.60;;;;;;;-146.42;100.00;67171.59;6220214;23;20091;-86
2022/11/08 00:48:03;;;;;;;15.30;3.90;;;;;;;-146.42;100.00;67171.59;6184280;23;20455;-88
2022/11/08 00:50:38;;;;;;;14.15;2.70;;;;;;;-146.42;100.00;67171.59;6219380;23;20020;-88
2022/11/08 00:53:22;;;;;;;22.08;3.67;;;;;;;-146.42;100.00;67171.59;6218756;23;20494;-88
2022/11/08 00:55:58;;;;;;;17.88;3.50;;;;;;;-146.42;100.00;67171.59;6181365;23;20505;-88
2022/11/08 00:58:36;;;;;;;17.90;4.03;;;;;;;-146.42;100.00;67171.59;6219674;23;20008;-89
2022/11/08 01:06:47;;;;;;;10.57;2.85;;;;;;;-146.42;100.00;67171.59;6218268;23;20016;-87
2022/11/08 01:09:16;;;;;;;19.05;3.60;;;;;;;-146.42;100.00;67171.59;6183583;23;20024;-87
2022/11/08 01:11:58;;;;;;;17.88;3.78;;;;;;;-146.42;100.00;67171.59;6218609;23;20021;-88
2022/11/08 01:14:48;;;;;;;18.13;4.18;;;;;;;-146.42;100.00;67171.59;6181826;23;20016;-88
2022/11/08 01:17:18;;;;;;;16.63;3.55;;;;;;;-146.42;100.00;67171.59;6218671;23;20105;-88
2022/11/08 01:20:00;;;;;;;21.55;4.30;;;;;;;-146.42;100.00;67171.59;6181842;23;20083;-88
2022/11/08 01:22:33;;;;;;;14.55;3.88;;;;;;;-146.42;100.00;67171.59;6181415;23;20021;-88
2022/11/08 01:25:03;;;;;;;21.20;3.95;;;;;;;-146.42;100.00;67171.59;6181676;23;20038;-88
2022/11/08 01:27:40;;;;;;;18.92;3.30;;;;;;;-146.42;100.00;67171.59;6217676;23;20028;-88
2022/11/08 01:30:11;;;;;;;19.63;3.88;;;;;;;-146.42;100.00;67171.59;6180588;23;20024;-87
2022/11/08 01:32:52;;;;;;;13.43;3.75;;;;;;;-146.42;100.00;67171.59;6217689;23;20100;-87
2022/11/08 01:35:22;;;;;;;15.45;3.53;;;;;;;-146.42;100.00;67171.59;6218254;23;20023;-87
2022/11/08 01:37:51;;;;;;;11.85;3.13;;;;;;;-146.42;100.00;67171.59;6182739;23;20047;-87
2022/11/08 01:40:34;;;;;;;14.38;3.92;;;;;;;-146.42;100.00;67171.59;6218655;23;20083;-88
2022/11/08 01:43:37;;;;;;;18.83;3.80;;;;;;;-146.42;100.00;67171.59;6183111;23;20032;-87
2022/11/08 01:46:35;;;;;;;14.23;4.05;;;;;;;-146.42;100.00;67171.59;6220296;23;20456;-88
2022/11/08 01:49:32;;;;;;;13.60;4.18;;;;;;;-146.42;100.00;67171.59;6193766;23;20021;-89
2022/11/08 01:52:20;;;;;;;18.25;3.88;;;;;;;-146.42;100.00;67171.59;6181114;23;20023;-88
2022/11/08 01:55:11;;;;;;;12.70;3.17;;;;;;;-146.42;100.00;67171.59;6209442;23;20438;-88
2022/11/08 01:57:51;;;;;;;22.95;4.10;;;;;;;-146.42;100.00;67171.59;6218379;23;20107;-87
2022/11/08 02:00:32;;;;;;;16.77;3.90;;;;;;;-146.42;100.00;67171.59;6219443;23;20079;-88
2022/11/08 02:03:08;;;;;;;24.50;4.43;;;;;;;-146.42;100.00;67171.59;6219593;23;20017;-88
2022/11/08 02:05:38;;;;;;;16.15;5.15;;;;;;;-146.42;100.00;67171.59;6182329;23;20020;-88
2022/11/08 02:08:33;;;;;;;18.23;4.00;;;;;;;-146.42;100.00;67171.59;6219584;23;20019;-88
2022/11/08 02:11:08;;;;;;;19.05;4.10;;;;;;;-146.42;100.00;67171.59;6191840;23;20083;-87
2022/11/08 02:13:38;;;;;;;17.55;4.50;;;;;;;-146.42;100.00;67171.59;6220312;23;20098;-87
2022/11/08 02:16:14;;;;;;;19.92;4.30;;;;;;;-146.42;100.00;67171.59;6209514;23;20016;-87
2022/11/08 02:18:50;;;;;;;18.73;3.92;;;;;;;-146.42;100.00;67171.59;6183200;23;20016;-87
2022/11/08 02:21:24;;;;;;;15.25;3.97;;;;;;;-146.42;100.00;67171.59;6220592;23;20542;-89
2022/11/08 02:24:04;;;;;;;23.13;4.82;;;;;;;-146.42;100.00;67171.59;6185097;23;20024;-88
2022/11/08 02:26:38;;;;;;;14.02;3.92;;;;;;;-146.42;100.00;67171.59;6220921;23;20067;-88
2022/11/08 02:29:30;;;;;;;10.60;3.78;;;;;;;-146.42;100.00;67171.59;6220579;23;20454;-88
2022/11/08 02:32:11;;;;;;;14.10;3.70;;;;;;;-146.42;100.00;67171.59;6220890;23;20020;-88
2022/11/08 02:34:49;;;;;;;22.52;4.05;;;;;;;-146.42;100.00;67171.59;6184241;23;20063;-87
2022/11/08 02:37:24;;;;;;;15.25;3.85;;;;;;;-146.42;100.00;67171.59;6182793;23;20012;-88
2022/11/08 02:39:55;;;;;;;14.80;4.13;;;;;;;-146.42;100.00;67171.59;6219855;23;20028;-88
2022/11/08 02:42:31;;;;;;;16.38;3.03;;;;;;;-146.42;100.00;67171.59;6217165;23;20043;-88
2022/11/08 02:44:58;;;;;;;13.10;3.45;;;;;;;-146.42;100.00;67171.59;6219225;23;20016;-88
2022/11/08 02:47:28;;;;;;;14.60;3.35;;;;;;;-146.42;100.00;67171.59;6180822;23;20091;-88
2022/11/08 02:50:05;;;;;;;11.77;3.38;;;;;;;-146.42;100.00;67171.59;6220178;23;20017;-89
2022/11/08 02:52:33;;;;;;;12.48;3.47;;;;;;;-146.42;100.00;67171.59;6180623;23;20119;-88
2022/11/08 02:55:08;;;;;;;15.05;3.00;;;;;;;-146.42;100.00;67171.59;6181787;23;20063;-89
2022/11/08 02:57:44;;;;;;;16.08;3.88;;;;;;;-146.42;100.00;67171.59;6216834;23;20086;-88
2022/11/08 03:00:15;;;;;;;11.05;3.63;;;;;;;-146.42;100.00;67171.59;6183193;23;20024;-88
2022/11/08 03:02:42;;;;;;;13.27;3.88;;;;;;;-146.42;100.00;67171.59;6217368;23;20447;-88
2022/11/08 03:05:13;;;;;;;17.25;3.88;;;;;;;-146.42;100.00;67171.59;6181264;23;20017;-88
2022/11/08 03:07:48;;;;;;;14.45;3.95;;;;;;;-146.42;100.00;67171.59;6219320;23;20024;-88
2022/11/08 03:10:24;;;;;;;15.25;3.75;;;;;;;-146.42;100.00;67171.59;6181821;23;20043;-87
2022/11/08 03:12:59;;;;;;;13.05;4.28;;;;;;;-146.42;100.00;67171.59;6217936;23;20461;-88
2022/11/08 03:15:32;;;;;;;16.25;4.30;;;;;;;-146.42;100.00;67171.59;6182240;23;20443;-87
2022/11/08 03:18:13;;;;;;;14.73;3.40;;;;;;;-146.42;100.00;67171.59;6218609;23;20078;-88
2022/11/08 03:20:44;;;;;;;15.88;3.92;;;;;;;-146.42;100.00;67171.59;6182007;23;20529;-88
2022/11/08 03:23:27;;;;;;;20.93;5.07;;;;;;;-146.42;100.00;67171.59;6183566;23;20530;-87
2022/11/08 03:26:03;;;;;;;15.02;3.70;;;;;;;-146.42;100.00;67171.59;6183185;23;20020;-87
2022/11/08 03:28:45;;;;;;;;;;;;;;;;;;;;;
2022/11/08 03:31:14;;;;;;;13.75;3.45;;;;;;;-146.42;100.00;67171.59;6180601;23;20035;-88
2022/11/08 03:36:30;;;;;;;20.15;3.72;;;;;;;-146.42;100.00;67171.59;6180649;23;20308;-89
2022/11/08 03:39:00;;;;;;;15.70;3.80;;;;;;;-146.42;100.00;67171.59;6218613;23;20020;-88
2022/11/08 03:41:38;;;;;;;11.90;4.05;;;;;;;-146.42;100.00;67171.59;6217271;23;20095;-88
2022/11/08 03:44:08;;;;;;;16.88;4.03;;;;;;;-146.42;100.00;67171.59;6183045;23;20024;-89
2022/11/08 03:46:46;;;;;;;13.57;3.17;;;;;;;-146.42;100.00;67171.59;6183631;23;20021;-88
2022/11/08 03:49:16;;;;;;;12.73;3.60;;;;;;;-146.42;100.00;67171.59;6182579;23;20017;-88
2022/11/08 03:51:53;;;;;;;9.38;3.35;;;;;;;-146.42;100.00;67171.59;6216795;23;20016;-88
2022/11/08 03:54:31;;;;;;;12.90;4.15;;;;;;;-146.42;100.00;67171.59;6183824;23;20025;-88
2022/11/08 03:57:14;;;;;;;20.55;3.90;;;;;;;-146.42;100.00;67171.59;6183445;23;20551;-88
2022/11/08 03:59:47;;;;;;;13.70;3.55;;;;;;;-146.42;100.00;67171.59;6218176;23;20083;-89
2022/11/08 04:02:25;;;;;;;;;;;;;;;-146.42;100.00;67171.59;6182792;23;20416;-88
2022/11/08 04:05:10;;;;;;;9.35;3.47;;;;;;;-146.42;100.00;67171.59;6184063;23;19915;-88
2022/11/08 04:08:14;;;;;;;12.35;3.38;;;;;;;-146.42;100.00;67171.59;6183202;23;20025;-88
2022/11/08 04:10:55;;;;;;;12.50;3.63;;;;;;;-146.42;100.00;67171.59;6182683;23;20040;-87
2022/11/08 04:16:16;;;;;;;16.27;3.72;;;;;;;-146.42;100.00;67171.59;6181401;23;20020;-88
2022/11/08 04:21:34;;;;;;;14.23;3.85;;;;;;;-146.42;100.00;67171.59;6220159;23;20028;-88
2022/11/08 04:24:08;;;;;;;14.48;3.63;;;;;;;-146.42;100.00;67171.59;6218986;23;20103;-88
2022/11/08 04:26:58;;;;;;;17.65;4.10;;;;;;;-146.42;100.00;67171.59;6180744;23;20028;-88
2022/11/08 04:29:29;;;;;;;13.48;3.70;;;;;;;-146.42;100.00;67171.59;6182462;23;20027;-89
2022/11/08 04:32:06;;;;;;;15.95;3.97;;;;;;;-146.42;100.00;67171.59;6181960;23;20039;-88
2022/11/08 04:34:40;;;;;;;13.05;3.60;;;;;;;-146.42;100.00;67171.59;6217640;23;20103;-89
2022/11/08 04:37:13;;;;;;;13.27;4.13;;;;;;;-146.42;100.00;67171.59;6181527;23;20127;-89
2022/11/08 04:39:51;;;;;;;9.05;3.67;;;;;;;-146.42;100.00;67171.59;6217513;23;20412;-88
2022/11/08 04:42:23;;;;;;;9.05;3.58;;;;;;;-146.42;100.00;67171.59;6179499;23;20107;-89
2022/11/08 04:44:54;;;;;;;11.68;3.55;;;;;;;-146.42;100.00;67171.59;6182157;23;20103;-88
2022/11/08 04:47:27;;;;;;;13.23;4.25;;;;;;;-146.42;100.00;67171.59;6219016;23;20040;-89
2022/11/08 04:49:57;;;;;;;13.40;3.45;;;;;;;-146.42;100.00;67171.59;6180176;23;20020;-88
2022/11/08 04:52:43;;;;;;;16.45;3.55;;;;;;;-146.42;100.00;67171.59;6178514;23;20537;-88
2022/11/08 04:55:17;;;;;;;12.70;3.75;;;;;;;-146.42;100.00;67171.59;6180350;23;20020;-89
2022/11/08 04:57:46;;;;;;;9.70;2.90;;;;;;;-146.42;100.00;67171.59;6181038;23;20102;-88
2022/11/08 05:00:37;;;;;;;8.43;3.17;;;;;;;-146.42;100.00;67171.59;6181119;23;20051;-89
2022/11/08 05:03:26;;;;;;;14.70;3.25;;;;;;;-146.42;100.00;67171.59;6178098;23;20023;-89
2022/11/08 05:05:53;;;;;;;9.50;3.10;;;;;;;-146.42;100.00;67171.59;6182378;23;20074;-88
2022/11/08 05:08:33;;;;;;;10.10;3.17;;;;;;;-146.42;100.00;67171.59;6180402;23;20024;-90
2022/11/08 05:11:13;;;;;;;11.65;3.40;;;;;;;-146.42;100.00;67171.59;6182093;23;20094;-89
2022/11/08 05:13:45;;;;;;;12.82;3.03;;;;;;;-146.42;100.00;67171.59;6183351;23;20024;-88
2022/11/08 05:16:22;;;;;;;14.25;3.70;;;;;;;-146.42;100.00;67171.59;6183266;23;20414;-88
2022/11/08 05:18:52;;;;;;;11.50;3.58;;;;;;;-146.42;100.00;67171.59;6219508;23;20056;-88
2022/11/08 05:24:24;;;;;;;12.80;3.40;;;;;;;-146.42;100.00;67171.59;6220053;23;20091;-88
2022/11/08 05:27:07;;;;;;;10.98;2.92;;;;;;;-146.42;100.00;67171.59;6220677;23;20450;-88
2022/11/08 05:29:42;;;;;;;9.65;3.55;;;;;;;-146.42;100.00;67171.59;6219990;23;20016;-88
2022/11/08 05:32:12;;;;;;;12.07;3.97;;;;;;;-146.42;100.00;67171.59;6217510;23;20016;-90
2022/11/08 05:34:51;;;;;;;14.13;3.38;;;;;;;-146.42;100.00;67171.59;6217571;23;20027;-89
2022/11/08 05:37:39;;;;;;;15.30;2.63;;;;;;;-146.42;100.00;67171.59;6216547;23;20036;-87
2022/11/08 05:40:16;;;;;;;12.88;3.03;;;;;;;-146.42;100.00;67171.59;6180614;23;20046;-87
2022/11/08 05:42:45;;;;;;;13.80;3.27;;;;;;;-146.42;100.00;67171.59;6179813;23;20049;-87
2022/11/08 05:45:28;;;;;;;8.80;2.40;;;;;;;-146.42;100.00;67171.59;6218624;23;20023;-89
2022/11/08 05:48:05;;;;;;;9.05;3.03;;;;;;;-146.42;100.00;67171.59;6183134;23;20083;-88
2022/11/08 05:50:42;;;;;;;16.38;3.72;;;;;;;-146.42;100.00;67171.59;6217969;23;20078;-88
2022/11/08 05:53:16;;;;;;;11.30;2.83;;;;;;;-146.42;100.00;67171.59;6180957;23;20027;-87
2022/11/08 05:55:45;;;;;;;12.07;2.83;;;;;;;-146.42;100.00;67171.59;6183062;23;20024;-88
2022/11/08 05:58:24;;;;;;;9.50;3.55;;;;;;;-146.42;100.00;67171.59;6184561;23;20040;-86
2022/11/08 06:01:02;;;;;;;13.73;3.47;;;;;;;-146.42;100.00;67171.59;6180725;23;20028;-88
2022/11/08 06:03:43;;;;;;;9.60;2.97;;;;;;;-146.42;100.00;67171.59;6181855;23;20095;-88
2022/11/08 06:06:27;;;;;;;8.77;3.47;;;;;;;-146.42;100.00;67171.59;6219040;23;20012;-88
2022/11/08 06:09:02;;;;;;;5.97;2.40;;;;;;;-146.42;100.00;67171.59;6219418;23;20016;-89
2022/11/08 06:11:36;;;;;;;8.32;2.72;;;;;;;-146.42;100.00;67171.59;6219794;23;20013;-88
2022/11/08 06:14:06;;;;;;;8.55;2.65;;;;;;;-146.42;100.00;67171.59;6219624;23;20016;-88
2022/11/08 06:16:44;;;;;;;6.55;2.67;;;;;;;-146.42;100.00;67171.59;6182175;23;20381;-91
2022/11/08 06:19:47;;;;;;;12.93;3.67;;;;;;;-146.42;100.00;67171.59;6183255;23;20021;-89
2022/11/08 06:22:17;;;;;;;11.52;3.00;;;;;;;-146.42;100.00;67171.59;6220123;23;20023;-87
2022/11/08 06:24:50;;;;;;;8.43;2.63;;;;;;;-146.42;100.00;67171.59;6181660;23;20129;-87
2022/11/08 06:27:20;;;;;;;8.57;3.17;;;;;;;-146.42;100.00;67171.59;6220519;23;20075;-88
2022/11/08 06:30:11;;;;;;;9.60;3.10;;;;;;;-146.42;100.00;67171.59;6185426;23;20050;-88
2022/11/08 06:32:42;;;;;;;10.68;3.03;;;;;;;-146.42;100.00;67171.59;6180728;23;20020;-87
2022/11/08 06:41:03;;;;;;;7.50;2.92;;;;;;;-146.42;100.00;67171.59;6205770;23;20087;-89
2022/11/08 06:43:36;;;;;;;12.05;3.25;;;;;;;-146.42;100.00;67171.59;6219303;23;20070;-89
2022/11/08 06:46:14;;;;;;;10.07;3.05;;;;;;;-146.42;100.00;67171.59;6183949;23;20030;-88
2022/11/08 06:49:06;;;;;;;7.80;3.00;;;;;;;-146.42;100.00;67171.59;6184948;23;20477;-88
2022/11/08 06:51:48;;;;;;;9.25;2.65;;;;;;;-146.42;100.00;67171.59;6184364;23;20025;-88
2022/11/08 06:54:37;;;;;;;10.23;3.15;;;;;;;-146.42;100.00;67171.59;6219739;23;20021;-88
2022/11/08 06:57:10;;;;;;;11.77;3.42;;;;;;;-146.42;100.00;67171.59;6220715;23;20035;-88
2022/11/08 07:00:04;;;;;;;8.80;2.92;;;;;;;-146.42;100.00;67171.59;6220280;23;20044;-88
2022/11/08 07:02:55;;;;;;;9.63;2.85;;;;;;;-146.42;100.00;67171.59;6183676;23;20028;-88
2022/11/08 07:05:26;;;;;;;12.65;3.25;;;;;;;-146.42;100.00;67171.59;6221086;23;20023;-87
2022/11/08 07:08:33;;;;;;;12.27;2.95;;;;;;;-146.42;100.00;67171.59;6221471;23;20016;-88
2022/11/08 07:11:17;;;;;;;;;;;;;;;;;;;;;
2022/11/08 07:14:01;;;;;;;6.97;2.58;;;;;;;-146.42;100.00;67171.59;6222714;23;20017;-89
2022/11/08 07:16:37;;;;;;;10.57;2.85;;;;;;;-146.42;100.00;67171.59;6220798;23;20303;-88
2022/11/08 07:19:12;;;;;;;6.45;2.80;;;;;;;-146.42;100.00;67171.59;6211236;23;20363;-88
2022/11/08 07:21:39;;;;;;;11.48;2.65;;;;;;;-146.42;100.00;67171.59;6184138;23;20342;-86
2022/11/08 07:24:12;;;;;;;6.32;3.47;;;;;;;-146.42;100.00;67171.59;6220691;23;20090;-89
2022/11/08 07:26:55;;;;;;;15.77;3.03;;;;;;;-146.42;100.00;67171.59;6220760;23;20100;-88
2022/11/08 07:29:46;;;;;;;11.48;3.33;;;;;;;-146.42;100.00;67171.59;6185239;23;20103;-88
2022/11/08 07:32:47;;;;;;;9.18;3.17;;;;;;;-146.42;100.00;67171.59;6184535;23;20108;-90
2022/11/08 07:35:19;;;;;;;8.43;3.47;;;;;;;-146.42;100.00;67171.59;6211117;23;20023;-89
2022/11/08 07:37:48;;;;;;;4.88;2.38;;;;;;;-146.42;100.00;67171.59;6185100;23;20072;-87
2022/11/08 07:40:18;;;;;;;8.10;2.80;;;;;;;-146.42;100.00;67171.59;6183770;23;20024;-87
2022/11/08 07:42:49;;;;;;;8.82;3.17;;;;;;;-146.42;100.00;67171.59;6183386;23;20024;-87
2022/11/08 07:45:21;;;;;;;10.10;2.55;;;;;;;-146.42;100.00;67171.59;6220489;23;20024;-87
2022/11/08 07:47:57;;;;;;;9.35;2.85;;;;;;;-146.42;100.00;67171.59;6184528;23;20028;-90
2022/11/08 07:50:31;;;;;;;7.82;2.92;;;;;;;-146.42;100.00;67171.59;6182655;23;20095;-90
2022/11/08 07:53:03;;;;;;;11.10;2.50;;;;;;;-146.42;100.00;67171.59;6221515;23;20025;-89
2022/11/08 07:55:41;;;;;;;8.27;2.83;;;;;;;-146.42;100.00;67171.59;6185671;23;20016;-88
2022/11/08 07:58:11;;;;;;;8.63;2.30;;;;;;;-146.42;100.00;67171.59;6185144;23;20411;-88
2022/11/08 08:00:42;;;;;;;10.27;2.42;;;;;;;-146.42;100.00;67171.59;6182348;23;20017;-88
2022/11/08 08:03:11;;;;;;;6.65;2.47;;;;;;;-146.42;100.00;67171.59;6219762;23;20100;-87
2022/11/08 08:05:51;;;;;;;10.50;2.65;;;;;;;-146.42;100.00;67171.59;6218496;23;20024;-88
2022/11/08 08:08:21;;;;;;;9.65;2.80;;;;;;;-146.42;100.00;67171.59;6220528;23;20012;-86
2022/11/08 08:10:49;;;;;;;12.60;2.72;;;;;;;-146.42;100.00;67171.59;6219156;23;20040;-86
2022/11/08 08:13:23;;;;;;;7.20;2.30;;;;;;;-146.42;100.00;67171.59;6218213;23;20086;-87
2022/11/08 08:16:02;;;;;;;9.13;2.40;;;;;;;-146.42;100.00;67171.59;6219523;23;20023;-89
2022/11/08 08:18:32;;;;;;;9.60;2.97;;;;;;;-146.42;100.00;67171.59;6219399;23;20075;-87
2022/11/08 08:21:04;;;;;;;9.30;3.25;;;;;;;-146.42;100.00;67171.59;6181768;23;20019;-87
2022/11/08 08:23:35;;;;;;;8.57;2.90;;;;;;;-146.42;100.00;67171.59;6181733;23;20653;-87
2022/11/08 08:26:10;;;;;;;6.57;2.38;;;;;;;-146.42;100.00;67171.59;6219442;23;20051;-88
2022/11/08 08:28:38;;;;;;;9.30;2.50;;;;;;;-146.42;100.00;67171.59;6218917;23;20040;-88
2022/11/08 08:31:06;;;;;;;9.77;2.38;;;;;;;-146.42;100.00;67171.59;6181419;23;20016;-87
2022/11/08 08:33:35;;;;;;;9.25;2.60;;;;;;;-146.42;100.00;67171.59;6219657;23;20020;-86
2022/11/08 08:36:03;;;;;;;9.32;3.13;;;;;;;-146.42;100.00;67171.59;6220930;23;20036;-86
2022/11/08 08:38:30;;;;;;;10.73;2.55;;;;;;;-146.42;100.00;67171.59;6219518;23;20032;-88
2022/11/08 08:41:01;;;;;;;14.45;3.25;;;;;;;-146.42;100.00;67171.59;6181994;23;20024;-86
2022/11/08 08:43:32;;;;;;;6.63;2.25;;;;;;;-146.42;100.00;67171.59;6218532;23;20147;-88
2022/11/08 08:46:02;;;;;;;7.20;2.90;;;;;;;-146.42;100.00;67171.59;6183536;23;20332;-87
2022/11/08 08:48:34;;;;;;;7.53;2.40;;;;;;;-146.42;100.00;67171.59;6183281;23;20020;-88
2022/11/08 08:51:04;;;;;;;5.95;2.45;;;;;;;-146.42;100.00;67171.59;6218077;23;20019;-88
2022/11/08 08:53:31;;;;;;;5.13;2.50;;;;;;;-146.42;100.00;67171.59;6182041;23;20031;-89
2022/11/08 08:56:01;;;;;;;8.65;2.90;;;;;;;-146.42;100.00;67171.59;6183269;23;20047;-88
2022/11/08 08:58:34;;;;;;;10.98;2.30;;;;;;;-146.42;100.00;67171.59;6217169;23;20402;-87
2022/11/08 09:01:07;;;;;;;7.10;2.03;;;;;;;-146.42;100.00;67171.59;6216615;23;20012;-87
2022/11/08 09:03:38;;;;;;;8.85;2.13;;;;;;;-146.42;100.00;67171.59;6218807;23;20357;-88
2022/11/08 09:06:08;;;;;;;7.30;2.47;;;;;;;-146.42;100.00;67171.59;6218347;23;20012;-87
2022/11/08 09:08:52;;;;;;;8.20;2.53;;;;;;;-146.42;100.00;67171.59;6182116;23;20506;-88
2022/11/08 09:11:25;;;;;;;6.28;2.60;;;;;;;-146.42;100.00;67171.59;6218195;23;20013;-87
2022/11/08 09:14:00;;;;;;;9.98;2.70;;;;;;;-146.42;100.00;67171.59;6218224;23;20074;-87
2022/11/08 09:16:31;;;;;;;7.75;2.47;;;;;;;-146.42;100.00;67171.59;6179095;23;20048;-88
2022/11/08 09:19:02;;;;;;;6.65;2.72;;;;;;;-146.42;100.00;67171.59;6182621;23;20091;-87
2022/11/08 09:21:31;;;;;;;7.88;2.75;;;;;;;-146.42;100.00;67171.59;6181292;23;20028;-88
2022/11/08 09:23:58;;;;;;;7.82;2.55;;;;;;;-146.42;100.00;67171.59;6217130;23;20027;-86
2022/11/08 09:26:29;;;;;;;6.80;2.63;;;;;;;-146.42;100.00;67171.59;6180914;23;20020;-88
2022/11/08 09:29:01;;;;;;;4.20;2.15;;;;;;;-146.42;100.00;67171.59;6220063;23;20112;-87
2022/11/08 09:31:29;;;;;;;7.45;2.80;;;;;;;-146.42;100.00;67171.59;6180166;23;20048;-87
2022/11/08 09:34:04;;;;;;;8.20;2.33;;;;;;;-146.42;100.00;67171.59;6219413;23;20013;-87
2022/11/08 09:36:41;;;;;;;6.88;2.30;;;;;;;-146.42;100.00;67171.59;6180096;23;20034;-88
2022/11/08 09:39:10;;;;;;;7.28;2.85;;;;;;;-146.42;100.00;67171.59;6181858;23;20047;-87
2022/11/08 09:42:03;;;;;;;5.40;2.45;;;;;;;-146.42;100.00;67171.59;6181432;23;20017;-89
2022/11/08 09:45:03;;;;;;;9.95;2.75;;;;;;;-146.42;100.00;67171.59;6218540;23;20017;-88
2022/11/08 09:47:35;;;;;;;3.90;2.33;;;;;;;-146.42;100.00;67171.59;6180986;23;20020;-87
2022/11/08 09:50:15;;;;;;;11.32;2.72;;;;;;;-146.42;100.00;67171.59;6218386;23;20016;-88
2022/11/08 09:53:00;;;;;;;5.85;2.45;;;;;;;-146.42;100.00;67171.59;6217984;23;20083;-88
2022/11/08 09:55:37;;;;;;;8.45;2.58;;;;;;;-146.42;100.00;67171.59;6219355;23;20462;-89
2022/11/08 09:58:31;;;;;;;7.13;2.80;;;;;;;-146.42;100.00;67171.59;6218365;23;20047;-87
2022/11/08 10:01:09;;;;;;;8.82;2.60;;;;;;;-146.42;100.00;67171.59;6179762;23;20039;-87
2022/11/08 10:03:47;;;;;;;8.70;2.17;;;;;;;-146.42;100.00;67171.59;6218868;23;20142;-88
2022/11/08 10:06:53;;;;;;;7.15;2.30;;;;;;;-146.42;100.00;67171.59;6180074;23;20038;-88
2022/11/08 10:09:56;;;;;;;4.65;2.35;;;;;;;-146.42;100.00;67171.59;6179541;23;20024;-89
2022/11/08 10:12:43;;;;;;;5.63;2.20;;;;;;;-146.42;100.00;67171.59;6218665;23;20020;-89
2022/11/08 10:15:22;;;;;;;8.68;2.40;;;;;;;-146.42;100.00;67171.59;6182556;23;20016;-88
2022/11/08 10:18:34;;;;;;;9.15;2.72;;;;;;;-146.42;100.00;67171.59;6216989;23;20462;-89
2022/11/08 10:21:15;;;;;;;10.02;2.75;;;;;;;-146.42;100.00;67171.59;6165083;23;20047;-88
2022/11/08 10:24:00;;;;;;;10.20;2.75;;;;;;;-146.42;100.00;67171.59;6183429;23;20019;-88
2022/11/08 10:26:36;;;;;;;6.97;2.10;;;;;;;-146.42;100.00;67171.59;6182240;23;20103;-90
2022/11/08 10:29:10;;;;;;;3.30;1.95;;;;;;;-146.42;100.00;67171.59;6220392;23;20247;-88
2022/11/08 10:31:40;;;;;;;10.45;2.10;;;;;;;-146.42;100.00;67171.59;6181879;23;20059;-88
2022/11/08 10:34:15;;;;;;;6.95;2.67;;;;;;;-146.42;100.00;67171.59;6183325;23;20027;-88
2022/11/08 10:36:45;;;;;;;5.07;1.90;;;;;;;-146.42;100.00;67171.59;6221474;23;20012;-88
2022/11/08 10:39:25;;;;;;;7.30;2.60;;;;;;;-146.42;100.00;67171.59;6184485;23;20017;-88
2022/11/08 10:42:02;;;;;;;7.55;2.10;;;;;;;-146.42;100.00;67171.59;6216425;23;20012;-88
2022/11/08 10:44:37;;;;;;;6.05;2.60;;;;;;;-146.42;100.00;67171.59;6220102;23;20012;-88
2022/11/08 10:47:15;;;;;;;5.95;2.10;;;;;;;-146.42;100.00;67171.59;6219793;23;20020;-87
2022/11/08 10:49:43;;;;;;;5.63;2.60;;;;;;;-146.42;100.00;67171.59;6221800;23;20047;-87
2022/11/08 10:55:50;;;;;;;6.95;2.22;;;;;;;-146.42;100.00;67171.59;6135797;23;20020;-88
2022/11/08 10:58:36;;;;;;;6.22;2.50;;;;;;;-146.42;100.00;67171.59;6219407;23;20013;-89
2022/11/08 11:01:06;;;;;;;15.55;3.67;;;;;;;-146.42;100.00;67171.59;6182992;23;20019;-89
2022/11/08 11:03:33;;;;;;;3.85;1.98;;;;;;;-146.42;100.00;67171.59;6219833;23;20445;-87
2022/11/08 11:06:06;;;;;;;7.07;2.35;;;;;;;-146.42;100.00;67171.59;6219107;23;20088;-88
2022/11/08 11:08:33;;;;;;;8.10;2.33;;;;;;;-146.42;100.00;67171.59;6219931;23;20458;-88
2022/11/08 11:11:23;;;;;;;5.28;2.50;;;;;;;-146.42;100.00;67171.59;6220117;23;20009;-87
2022/11/08 11:14:16;;;;;;;10.93;1.95;;;;;;;-146.42;100.00;67171.59;6220963;23;20474;-88
2022/11/08 11:17:05;;;;;;;4.15;1.77;;;;;;;-146.42;100.00;67171.59;6184087;23;20355;-89
2022/11/08 11:19:35;;;;;;;4.53;2.28;;;;;;;-146.42;100.00;67171.59;6217376;23;20094;-88
2022/11/08 11:22:07;;;;;;;5.93;2.38;;;;;;;-146.42;100.00;67171.59;6220687;23;20091;-86
2022/11/08 11:24:46;;;;;;;7.43;2.40;;;;;;;-146.42;100.00;67171.59;6183201;23;20028;-88
2022/11/08 11:27:21;;;;;;;7.05;2.15;;;;;;;-146.42;100.00;67171.59;6219810;23;20016;-87
2022/11/08 11:30:20;;;;;;;8.15;2.83;;;;;;;-146.42;100.00;67171.59;6218988;23;20017;-88
2022/11/08 11:32:56;;;;;;;4.85;2.10;;;;;;;-146.42;100.00;67171.59;6182769;23;20413;-87
2022/11/08 11:35:31;;;;;;;7.18;2.40;;;;;;;-146.42;100.00;67171.59;6183535;23;20029;-88
2022/11/08 11:38:07;;;;;;;5.22;2.80;;;;;;;-146.42;100.00;67171.59;6220380;23;20047;-88
2022/11/08 11:40:42;;;;;;;4.35;2.30;;;;;;;-146.42;100.00;67171.59;6219034;23;20100;-87
2022/11/08 11:43:20;;;;;;;8.15;2.67;;;;;;;-146.42;100.00;67171.59;6181988;23;20112;-87
2022/11/08 11:46:06;;;;;;;11.45;2.40;;;;;;;-146.42;100.00;67171.59;6180644;23;20128;-88
2022/11/08 11:48:42;;;;;;;7.93;2.17;;;;;;;-146.42;100.00;67171.59;6219176;23;20020;-88
2022/11/08 11:51:11;;;;;;;7.63;2.60;;;;;;;-146.42;100.00;67171.59;6182158;23;20557;-88
2022/11/08 11:53:40;;;;;;;6.80;2.40;;;;;;;-146.42;100.00;67171.59;6219999;23;20022;-88
2022/11/08 11:56:43;;;;;;;11.07;2.80;;;;;;;-146.42;100.00;67171.59;6182264;23;20012;-87
2022/11/08 11:59:46;;;;;;;5.60;2.58;;;;;;;-146.42;100.00;67171.59;6208250;23;20028;-88
2022/11/08 12:02:47;;;;;;;6.20;2.47;;;;;;;-146.42;100.00;67171.59;6219321;23;20043;-87
2022/11/08 12:05:36;;;;;;;9.57;2.45;;;;;;;-146.42;100.00;67171.59;6202435;23;20025;-87
2022/11/08 12:08:19;;;;;;;7.40;2.33;;;;;;;-146.42;100.00;67171.59;6217433;23;20012;-88
2022/11/08 12:11:08;;;;;;;12.23;2.40;;;;;;;-146.42;100.00;67171.59;6181374;23;20024;-86
2022/11/08 12:14:09;;;;;;;8.00;2.40;;;;;;;-146.42;100.00;67171.59;6207200;23;20039;-88
2022/11/08 12:16:42;;;;;;;9.00;2.58;;;;;;;-146.42;100.00;67171.59;6178092;23;20028;-88
2022/11/08 12:19:29;;;;;;;9.70;2.40;;;;;;;-146.42;100.00;67171.59;6181718;23;20052;-89
2022/11/08 12:22:29;;;;;;;9.98;2.35;;;;;;;-146.42;100.00;67171.59;6182534;23;20044;-88
2022/11/08 12:25:15;;;;;;;6.82;2.15;;;;;;;-146.42;100.00;67171.59;6183601;23;20115;-87
2022/11/08 12:27:51;;;;;;;6.53;2.30;;;;;;;-146.42;100.00;67171.59;6182818;23;20026;-88
2022/11/08 12:30:25;;;;;;;5.45;1.95;;;;;;;-146.42;100.00;67171.59;6218407;23;20119;-86